createdAt,value
2019-05-30T00:02:17.532Z,100421.72
2019-05-30T00:05:23.018Z,100425.63
2019-05-30T00:08:28.208Z,100423.08
2019-05-30T00:11:33.390Z,100423.75
2019-05-30T00:14:38.529Z,100428.44
2019-05-30T00:17:43.654Z,100430.37
2019-05-30T00:20:48.849Z,100423.98
2019-05-30T00:23:54.075Z,100431.30
2019-05-30T00:27:00.268Z,100430.98
2019-05-30T00:30:23.356Z,100429.37
2019-05-30T00:33:14.002Z,100433.33
2019-05-30T00:36:19.231Z,100434.48
2019-05-30T00:39:24.443Z,100433.41
2019-05-30T00:42:29.594Z,100435.75
2019-05-30T00:45:34.796Z,100434.44
2019-05-30T00:48:39.901Z,100437.98
2019-05-30T00:51:45.071Z,100434.98
2019-05-30T00:54:50.215Z,100435.73
2019-05-30T00:57:56.589Z,100436.80
2019-05-30T01:01:03.083Z,100437.77
2019-05-30T01:04:08.426Z,100429.47
2019-05-30T01:07:13.571Z,100430.53
2019-05-30T01:10:19.492Z,100429.12
2019-05-30T01:13:24.763Z,100428.13
2019-05-30T01:16:29.902Z,100428.38
2019-05-30T01:19:35.048Z,100424.50
2019-05-30T01:22:40.130Z,100420.45
2019-05-30T01:25:45.263Z,100422.99
2019-05-30T01:28:50.637Z,100424.70
2019-05-30T01:31:55.817Z,100417.17
2019-05-30T01:35:01.984Z,100416.41
2019-05-30T01:38:08.401Z,100410.37
2019-05-30T01:41:13.583Z,100413.46
2019-05-30T01:44:18.702Z,100411.09
2019-05-30T01:47:23.817Z,100420.55
2019-05-30T01:50:28.921Z,100416.92
2019-05-30T01:53:34.279Z,100422.41
2019-05-30T01:56:39.398Z,100420.75
2019-05-30T01:59:44.767Z,100418.73
2019-05-30T02:02:49.914Z,100423.37
2019-05-30T02:05:55.121Z,100424.55
2019-05-30T02:09:01.124Z,100418.38
2019-05-30T02:12:07.851Z,100416.30
2019-05-30T02:15:13.293Z,100424.43
2019-05-30T02:18:18.456Z,100422.90
2019-05-30T02:21:23.595Z,100419.33
2019-05-30T02:24:28.791Z,100427.06
2019-05-30T02:27:35.133Z,100425.30
2019-05-30T02:30:40.341Z,100430.42
2019-05-30T02:33:45.603Z,100430.11
2019-05-30T02:36:51.786Z,100432.68
2019-05-30T02:40:00.189Z,100433.11
2019-05-30T02:43:05.659Z,100443.47
2019-05-30T02:46:12.585Z,100442.84
2019-05-30T02:49:17.886Z,100440.94
2019-05-30T02:52:23.081Z,100437.27
2019-05-30T02:55:28.295Z,100431.34
2019-05-30T02:58:33.444Z,100440.67
2019-05-30T03:01:58.350Z,100440.47
2019-05-30T03:04:45.569Z,100449.09
2019-05-30T03:07:50.785Z,100444.09
2019-05-30T03:10:55.986Z,100442.66
2019-05-30T03:14:04.489Z,100441.67
2019-05-30T03:17:11.998Z,100443.00
2019-05-30T03:20:22.748Z,100446.87
2019-05-30T03:23:23.828Z,100452.24
2019-05-30T03:26:29.480Z,100458.99
2019-05-30T03:29:34.638Z,100454.09
2019-05-30T03:33:03.847Z,100453.02
2019-05-30T03:35:47.067Z,100457.02
2019-05-30T03:38:52.284Z,100463.79
2019-05-30T03:41:57.414Z,100461.26
2019-05-30T03:45:04.221Z,100468.64
2019-05-30T03:48:14.287Z,100464.83
2019-05-30T03:51:21.397Z,100472.30
2019-05-30T03:54:27.893Z,100471.70
2019-05-30T03:57:37.072Z,100472.04
2019-05-30T04:00:51.473Z,100478.28
2019-05-30T04:04:09.221Z,100469.77
2019-05-30T04:07:20.449Z,100480.30
2019-05-30T04:10:29.249Z,100480.50
2019-05-30T04:13:55.488Z,100487.98
2019-05-30T04:17:00.752Z,100495.09
2019-05-30T04:20:09.308Z,100495.97
2019-05-30T04:23:14.973Z,100494.64
2019-05-30T04:26:21.297Z,100495.54
2019-05-30T04:29:26.448Z,100499.58
2019-05-30T04:32:32.630Z,100494.50
2019-05-30T04:35:37.749Z,100496.88
2019-05-30T04:38:43.037Z,100497.11
2019-05-30T04:41:48.170Z,100496.02
2019-05-30T04:44:53.422Z,100495.09
2019-05-30T04:47:58.588Z,100503.78
2019-05-30T04:51:03.757Z,100501.75
2019-05-30T04:54:12.566Z,100500.63
2019-05-30T04:57:16.929Z,100501.37
2019-05-30T05:00:22.247Z,100503.17
2019-05-30T05:03:44.168Z,100502.70
2019-05-30T05:06:34.270Z,100502.58
2019-05-30T05:09:39.466Z,100500.56
2019-05-30T05:12:44.632Z,100508.83
2019-05-30T05:15:49.796Z,100510.46
2019-05-30T05:18:55.006Z,100506.89
2019-05-30T05:22:00.161Z,100505.00
2019-05-30T05:25:05.966Z,100508.00
2019-05-30T05:28:11.270Z,100507.58
2019-05-30T05:31:16.688Z,100500.30
2019-05-30T05:34:22.796Z,100503.17
2019-05-30T05:37:28.115Z,100512.81
2019-05-30T05:40:33.360Z,100518.20
2019-05-30T05:43:38.531Z,100513.23
2019-05-30T05:46:43.687Z,100513.25
2019-05-30T05:49:48.936Z,100516.58
2019-05-30T05:52:54.178Z,100511.91
2019-05-30T05:55:59.255Z,100516.13
2019-05-30T05:59:04.431Z,100517.70
2019-05-30T06:02:10.421Z,100520.20
2019-05-30T06:05:16.007Z,100525.33
2019-05-30T06:08:21.504Z,100528.54
2019-05-30T06:11:26.809Z,100536.95
2019-05-30T06:14:31.995Z,100534.39
2019-05-30T06:17:37.170Z,100541.47
2019-05-30T06:20:42.402Z,100541.02
2019-05-30T06:23:47.606Z,100532.48
2019-05-30T06:26:53.899Z,100539.30
2019-05-30T06:29:59.110Z,100536.27
2019-05-30T06:33:04.256Z,100533.31
2019-05-30T06:36:09.702Z,100536.89
2019-05-30T06:39:16.215Z,100545.50
2019-05-30T06:42:21.738Z,100550.28
2019-05-30T06:45:26.927Z,100548.23
2019-05-30T06:48:32.125Z,100538.37
2019-05-30T06:51:37.382Z,100539.97
2019-05-30T06:54:42.745Z,100539.42
2019-05-30T06:57:47.949Z,100544.65
2019-05-30T07:00:53.071Z,100544.93
2019-05-30T07:03:58.449Z,100544.06
2019-05-30T07:07:05.947Z,100538.39
2019-05-30T07:10:11.188Z,100547.03
2019-05-30T07:13:16.624Z,100545.70
2019-05-30T07:16:23.292Z,100546.30
2019-05-30T07:19:29.499Z,100546.52
2019-05-30T07:22:34.774Z,100540.08
2019-05-30T07:25:40.004Z,100547.14
2019-05-30T07:28:45.215Z,100542.33
2019-05-30T07:31:50.375Z,100542.56
2019-05-30T07:35:06.001Z,100538.45
2019-05-30T07:38:03.459Z,100534.55
2019-05-30T07:41:08.612Z,100538.44
2019-05-30T07:44:13.802Z,100533.48
2019-05-30T07:47:18.990Z,100538.55
2019-05-30T07:50:24.205Z,100541.72
2019-05-30T07:53:29.371Z,100536.59
2019-05-30T07:56:35.202Z,100533.82
2019-05-30T07:59:40.392Z,100537.84
2019-05-30T08:02:45.528Z,100535.34
2019-05-30T08:05:50.693Z,100533.05
2019-05-30T08:08:55.854Z,100534.84
2019-05-30T08:12:01.034Z,100530.89
2019-05-30T08:15:07.226Z,100523.03
2019-05-30T08:18:13.453Z,100529.00
2019-05-30T08:21:18.677Z,100523.62
2019-05-30T08:24:23.852Z,100508.48
2019-05-30T08:27:32.361Z,100514.49
2019-05-30T08:30:38.719Z,100508.68
2019-05-30T08:33:47.263Z,100505.28
2019-05-30T08:36:51.844Z,100500.83
2019-05-30T08:39:57.105Z,100503.70
2019-05-30T08:43:02.296Z,100502.38
2019-05-30T08:46:07.700Z,100489.23
2019-05-30T08:49:12.993Z,100489.28
2019-05-30T08:52:18.184Z,100486.20
2019-05-30T08:55:23.421Z,100489.14
2019-05-30T08:58:28.729Z,100479.41
2019-05-30T09:01:35.723Z,100479.41
2019-05-30T09:04:41.994Z,100479.11
2019-05-30T09:07:47.265Z,100476.05
2019-05-30T09:10:52.485Z,100474.11
2019-05-30T09:13:57.616Z,100482.06
2019-05-30T09:17:02.864Z,100470.38
2019-05-30T09:20:10.185Z,100465.47
2019-05-30T09:23:15.402Z,100456.30
2019-05-30T09:26:20.524Z,100449.70
2019-05-30T09:29:25.634Z,100440.77
2019-05-30T09:32:30.810Z,100442.90
2019-05-30T09:35:36.113Z,100433.43
2019-05-30T09:38:41.816Z,100435.69
2019-05-30T09:41:47.750Z,100436.24
2019-05-30T09:44:52.889Z,100429.91
2019-05-30T09:47:58.193Z,100437.67
2019-05-30T09:51:03.374Z,100435.39
2019-05-30T09:54:08.567Z,100428.98
2019-05-30T09:57:13.692Z,100434.13
2019-05-30T10:00:19.704Z,100421.91
2019-05-30T10:03:24.955Z,100424.48
2019-05-30T10:06:30.395Z,100420.37
2019-05-30T10:09:35.559Z,100423.83
2019-05-30T10:12:41.682Z,100414.09
2019-05-30T10:15:47.075Z,100413.82
2019-05-30T10:18:52.886Z,100406.05
2019-05-30T10:21:58.104Z,100419.58
2019-05-30T10:25:03.455Z,100413.00
2019-05-30T10:28:08.695Z,100397.56
2019-05-30T10:31:13.818Z,100404.74
2019-05-30T10:34:18.975Z,100406.37
2019-05-30T10:37:24.206Z,100410.19
2019-05-30T10:40:32.073Z,100411.80
2019-05-30T10:43:36.308Z,100402.22
2019-05-30T10:46:41.426Z,100400.05
2019-05-30T10:49:48.031Z,100400.42
2019-05-30T10:52:53.698Z,100391.44
2019-05-30T10:55:59.920Z,100406.54
2019-05-30T10:59:05.165Z,100412.92
2019-05-30T11:02:10.411Z,100407.44
2019-05-30T11:05:16.093Z,100409.16
2019-05-30T11:08:24.269Z,100404.97
2019-05-30T11:11:29.476Z,100407.44
2019-05-30T11:14:34.581Z,100412.42
2019-05-30T11:17:39.727Z,100403.63
2019-05-30T11:20:44.906Z,100395.56
2019-05-30T11:23:51.437Z,100394.33
2019-05-30T11:26:57.238Z,100393.52
2019-05-30T11:30:02.397Z,100386.23
2019-05-30T11:33:07.674Z,100382.84
2019-05-30T11:36:12.963Z,100390.40
2019-05-30T11:39:18.117Z,100376.66
2019-05-30T11:42:23.252Z,100369.77
2019-05-30T11:45:28.436Z,100374.64
2019-05-30T11:48:33.585Z,100375.17
2019-05-30T11:51:38.819Z,100364.22
2019-05-30T11:54:43.931Z,100367.35
2019-05-30T11:57:50.011Z,100359.88
2019-05-30T12:00:56.329Z,100358.20
2019-05-30T12:04:01.657Z,100365.61
2019-05-30T12:07:07.733Z,100357.38
2019-05-30T12:10:13.103Z,100355.75
2019-05-30T12:13:18.347Z,100358.94
2019-05-30T12:16:23.500Z,100356.25
2019-05-30T12:19:30.459Z,100362.41
2019-05-30T12:22:35.571Z,100363.59
2019-05-30T12:25:40.785Z,100367.35
2019-05-30T12:28:46.020Z,100355.52
2019-05-30T12:31:52.332Z,100361.14
2019-05-30T12:34:58.381Z,100359.87
2019-05-30T12:38:06.442Z,100349.84
2019-05-30T12:41:10.472Z,100357.40
2019-05-30T12:44:15.659Z,100349.50
2019-05-30T12:47:20.935Z,100349.54
2019-05-30T12:50:26.645Z,100354.71
2019-05-30T12:53:31.830Z,100345.37
2019-05-30T12:56:36.969Z,100356.81
2019-05-30T12:59:42.130Z,100353.04
2019-05-30T13:02:47.297Z,100351.95
2019-05-30T13:05:52.548Z,100352.42
2019-05-30T13:08:57.677Z,100353.34
2019-05-30T13:12:02.834Z,100354.52
2019-05-30T13:15:08.581Z,100351.41
2019-05-30T13:18:13.849Z,100355.56
2019-05-30T13:21:19.134Z,100354.40
2019-05-30T13:24:26.251Z,100346.84
2019-05-30T13:27:31.465Z,100354.77
2019-05-30T13:30:36.942Z,100358.34
2019-05-30T13:33:42.033Z,100356.26
2019-05-30T13:36:47.185Z,100360.96
2019-05-30T13:39:52.334Z,100352.39
2019-05-30T13:42:57.811Z,100355.97
2019-05-30T13:46:04.441Z,100350.81
2019-05-30T13:49:09.789Z,100363.17
2019-05-30T13:52:14.999Z,100361.09
2019-05-30T13:55:20.841Z,100373.42
2019-05-30T13:58:25.870Z,100357.06
2019-05-30T14:01:31.053Z,100338.67
2019-05-30T14:04:36.157Z,100343.29
2019-05-30T14:07:41.393Z,100346.27
2019-05-30T14:10:46.594Z,100346.67
2019-05-30T14:13:51.787Z,100355.78
2019-05-30T14:16:56.988Z,100367.30
2019-05-30T14:20:03.016Z,100358.36
2019-05-30T14:23:09.377Z,100357.36
2019-05-30T14:26:14.545Z,100363.70
2019-05-30T14:29:19.686Z,100368.21
2019-05-30T14:32:24.835Z,100370.35
2019-05-30T14:35:29.992Z,100376.62
2019-05-30T14:38:35.288Z,100369.53
2019-05-30T14:41:40.465Z,100374.48
2019-05-30T14:44:45.659Z,100370.11
2019-05-30T14:47:50.817Z,100380.39
2019-05-30T14:50:55.999Z,100374.69
2019-05-30T14:54:01.224Z,100371.93
2019-05-30T14:57:06.799Z,100372.25
2019-05-30T15:00:14.533Z,100378.08
2019-05-30T15:03:19.715Z,100378.46
2019-05-30T15:06:24.895Z,100368.13
2019-05-30T15:09:29.995Z,100374.05
2019-05-30T15:12:35.186Z,100365.20
2019-05-30T15:15:40.343Z,100364.62
2019-05-30T15:18:45.489Z,100361.09
2019-05-30T15:21:50.713Z,100362.09
2019-05-30T15:24:55.931Z,100358.56
2019-05-30T15:28:01.139Z,100359.88
2019-05-30T15:31:06.829Z,100356.59
2019-05-30T15:34:12.599Z,100359.10
2019-05-30T15:37:17.756Z,100351.12
2019-05-30T15:40:22.920Z,100354.40
2019-05-30T15:43:28.050Z,100362.86
2019-05-30T15:46:33.286Z,100370.53
2019-05-30T15:49:38.463Z,100363.66
2019-05-30T15:52:43.612Z,100367.84
2019-05-30T15:55:48.859Z,100367.84
2019-05-30T15:58:54.344Z,100373.60
2019-05-30T16:01:59.576Z,100366.35
2019-05-30T16:05:05.799Z,100360.77
2019-05-30T16:08:11.129Z,100355.44
2019-05-30T16:11:17.009Z,100356.20
2019-05-30T16:14:22.254Z,100352.81
2019-05-30T16:17:27.502Z,100359.72
2019-05-30T16:20:32.760Z,100364.99
2019-05-30T16:23:37.952Z,100359.36
2019-05-30T16:26:43.146Z,100367.04
2019-05-30T16:29:48.283Z,100360.40
2019-05-30T16:32:53.450Z,100356.09
2019-05-30T16:35:58.549Z,100367.23
2019-05-30T16:39:03.869Z,100353.13
2019-05-30T16:42:09.636Z,100353.09
2019-05-30T16:45:19.494Z,100357.05
2019-05-30T16:48:22.536Z,100353.62
2019-05-30T16:51:27.683Z,100351.16
2019-05-30T16:54:32.905Z,100354.20
2019-05-30T16:57:38.184Z,100354.04
2019-05-30T17:00:44.265Z,100353.41
2019-05-30T17:03:49.426Z,100352.28
2019-05-30T17:06:54.555Z,100346.19
2019-05-30T17:09:59.800Z,100352.04
2019-05-30T17:13:04.967Z,100354.86
2019-05-30T17:16:10.297Z,100348.32
2019-05-30T17:19:16.411Z,100351.23
2019-05-30T17:22:22.782Z,100353.67
2019-05-30T17:25:27.991Z,100347.34
2019-05-30T17:28:34.280Z,100348.34
2019-05-30T17:31:39.473Z,100352.83
2019-05-30T17:34:44.640Z,100365.25
2019-05-30T17:37:49.770Z,100361.11
2019-05-30T17:40:56.386Z,100358.66
2019-05-30T17:44:01.575Z,100357.73
2019-05-30T17:47:06.797Z,100358.47
2019-05-30T17:50:13.011Z,100355.24
2019-05-30T17:53:18.168Z,100354.25
2019-05-30T17:56:24.019Z,100360.80
2019-05-30T17:59:30.409Z,100364.05
2019-05-30T18:02:35.740Z,100365.66
2019-05-30T18:05:43.016Z,100371.70
2019-05-30T18:08:48.190Z,100363.09
2019-05-30T18:11:54.228Z,100362.98
2019-05-30T18:14:59.369Z,100361.85
2019-05-30T18:18:04.880Z,100361.08
2019-05-30T18:21:10.206Z,100365.04
2019-05-30T18:24:15.469Z,100363.80
2019-05-30T18:27:21.706Z,100359.31
2019-05-30T18:30:39.780Z,100363.05
2019-05-30T18:33:45.226Z,100366.05
2019-05-30T18:36:51.890Z,100368.91
2019-05-30T18:39:57.503Z,100384.00
2019-05-30T18:43:02.667Z,100381.59
2019-05-30T18:46:08.173Z,100385.41
2019-05-30T18:49:16.570Z,100385.41
2019-05-30T18:52:21.780Z,100371.83
2019-05-30T18:55:26.967Z,100366.82
2019-05-30T18:58:33.271Z,100372.32
2019-05-30T19:01:38.589Z,100371.22
2019-05-30T19:04:43.737Z,100371.22
2019-05-30T19:07:48.938Z,100365.59
2019-05-30T19:10:54.163Z,100374.38
2019-05-30T19:13:59.388Z,100382.41
2019-05-30T19:17:05.681Z,100365.78
2019-05-30T19:20:12.754Z,100373.91
2019-05-30T19:23:19.607Z,100379.87
2019-05-30T19:26:24.808Z,100384.80
2019-05-30T19:29:31.067Z,100384.30
2019-05-30T19:32:36.958Z,100389.77
2019-05-30T19:35:42.246Z,100384.84
2019-05-30T19:38:47.420Z,100384.58
2019-05-30T19:41:57.103Z,100388.22
2019-05-30T19:44:59.536Z,100396.72
2019-05-30T19:48:04.712Z,100399.30
2019-05-30T19:51:10.148Z,100408.72
2019-05-30T19:54:15.480Z,100409.77
2019-05-30T19:57:20.709Z,100417.30
2019-05-30T20:00:26.577Z,100412.05
2019-05-30T20:03:38.472Z,100411.33
2019-05-30T20:06:38.824Z,100416.88
2019-05-30T20:09:43.920Z,100428.55
2019-05-30T20:12:50.506Z,100422.64
2019-05-30T20:15:55.698Z,100416.92
2019-05-30T20:19:00.997Z,100420.68
2019-05-30T20:22:06.285Z,100423.04
2019-05-30T20:25:11.631Z,100429.75
2019-05-30T20:28:17.028Z,100427.36
2019-05-30T20:31:22.258Z,100435.06
2019-05-30T20:34:27.495Z,100434.89
2019-05-30T20:37:32.697Z,100438.02
2019-05-30T20:40:38.862Z,100439.02
2019-05-30T20:43:44.253Z,100446.67
2019-05-30T20:46:49.471Z,100449.23
2019-05-30T20:49:54.698Z,100450.72
2019-05-30T20:52:59.857Z,100451.09
2019-05-30T20:56:05.049Z,100454.45
2019-05-30T20:59:10.627Z,100457.90
2019-05-30T21:02:15.888Z,100467.52
2019-05-30T21:05:21.182Z,100456.84
2019-05-30T21:08:26.703Z,100462.42
2019-05-30T21:11:33.600Z,100451.16
2019-05-30T21:14:41.400Z,100455.50
2019-05-30T21:17:47.354Z,100468.04
2019-05-30T21:20:52.607Z,100470.39
2019-05-30T21:23:57.777Z,100468.80
2019-05-30T21:27:02.945Z,100469.86
2019-05-30T21:30:08.636Z,100474.02
2019-05-30T21:33:13.852Z,100475.08
2019-05-30T21:36:19.024Z,100475.94
2019-05-30T21:39:24.286Z,100473.55
2019-05-30T21:42:29.455Z,100474.84
2019-05-30T21:45:34.574Z,100473.53
2019-05-30T21:48:40.830Z,100470.83
2019-05-30T21:51:46.139Z,100471.28
2019-05-30T21:54:51.356Z,100473.78
2019-05-30T21:57:56.535Z,100470.48
2019-05-30T22:01:25.297Z,100471.51
2019-05-30T22:04:30.492Z,100470.58
2019-05-30T22:07:36.908Z,100477.44
2019-05-30T22:10:43.086Z,100479.56
2019-05-30T22:13:49.438Z,100473.16
2019-05-30T22:16:54.834Z,100473.66
2019-05-30T22:19:59.922Z,100470.73
2019-05-30T22:23:05.145Z,100473.05
2019-05-30T22:26:10.488Z,100473.05
2019-05-30T22:29:15.726Z,100476.38
2019-05-30T22:32:20.854Z,100471.25
2019-05-30T22:35:26.029Z,100469.91
2019-05-30T22:38:31.134Z,100470.25
2019-05-30T22:41:36.301Z,100470.34
2019-05-30T22:44:41.463Z,100472.31
2019-05-30T22:47:46.650Z,100466.67
2019-05-30T22:50:52.883Z,100473.01
2019-05-30T22:53:57.963Z,100470.09
2019-05-30T22:57:03.096Z,100475.89
2019-05-30T23:00:08.467Z,100468.51
2019-05-30T23:03:13.763Z,100473.92
2019-05-30T23:06:19.028Z,100479.88
2019-05-30T23:09:24.193Z,100476.34
2019-05-30T23:12:29.360Z,100477.73
2019-05-30T23:15:34.595Z,100477.73
2019-05-30T23:18:39.731Z,100482.88
2019-05-30T23:21:44.889Z,100480.67
2019-05-30T23:24:52.053Z,100475.98
2019-05-30T23:27:57.638Z,100476.34
2019-05-30T23:31:02.888Z,100484.28
2019-05-30T23:34:07.997Z,100473.45
2019-05-30T23:37:13.244Z,100473.55
2019-05-30T23:40:18.673Z,100477.63
2019-05-30T23:43:23.866Z,100478.65
2019-05-30T23:46:29.010Z,100478.80
2019-05-30T23:49:34.309Z,100474.59
2019-05-30T23:52:39.411Z,100477.20
2019-05-30T23:55:44.574Z,100473.05
2019-05-30T23:58:50.534Z,100471.36
